Flight Track Log - Related Links

Times and Time Zones

All times are in EDT time to prevent confusion due to time zone crossing. See the LBQ792 flight status page for this flight to view local times or setup timezone preferences in your user account.

Time Position Orientation Groundspeed Altitude Reporting Facility
EDT Latitude Longitude Course Direction KTS MPH feet Rate Location/Type
Fri 12:37:45 AM 40.2978 -79.7611 117° Southeast 173 199 5,700  Level Cleveland Center
Fri 12:38:45 AM 40.2681 -79.7069 126° Southeast 173 199 7,200 1,450 Climbing Cleveland Center
Fri 12:39:45 AM 40.2364 -79.6531 128° Southeast 185 213 8,600 1,400 Climbing Cleveland Center
Fri 12:40:45 AM 40.2025 -79.5964 128° Southeast 197 227 10,000 1,400 Climbing Cleveland Center
Fri 12:41:00 AM 39.9154 -79.8795 175° South  Level FlightAware Approximate
Fri 12:41:45 AM 40.1667 -79.5344 127° Southeast 203 234 11,400  Level Cleveland Center
Fri 12:42:45 AM 40.1347 -79.4753 125° Southeast 203 234 12,700 1,250 Climbing Cleveland Center
Fri 12:43:45 AM 40.0967 -79.4161 130° Southeast 203 234 13,900 1,150 Climbing Cleveland Center
Fri 12:44:45 AM 40.0583 -79.3517 128° Southeast 203 234 15,000 600 Climbing Cleveland Center
Fri 12:45:45 AM 40.0139 -79.2792 129° Southeast 227 261 15,100  Climbing Cleveland Center
Fri 12:46:45 AM 39.9669 -79.2017 128° Southeast 257 296 15,000 -30 Descending Cleveland Center
Fri 12:49:07 AM 39.8650 -79.0219 126° Southeast 263 303 15,000  Level Washington Center
Fri 12:50:04 AM 39.8114 -78.9247 126° Southeast 279 321 15,000  Level Washington Center
Fri 12:51:04 AM 39.7636 -78.8444 128° Southeast 292 336 15,000  Level Washington Center
Fri 12:52:05 AM 39.7158 -78.7611 127° Southeast 286 329 15,000  Level Washington Center
Fri 12:53:07 AM 39.6700 -78.6783 126° Southeast 286 329 15,000 -450 Level Washington Center
Fri 12:54:05 AM 39.6242 -78.5928 125° Southeast 286 329 14,100 -974 Descending Washington Center
Fri 12:55:04 AM 39.5742 -78.5100 128° Southeast 286 329 13,100 -1,109 Descending Washington Center
Fri 12:56:04 AM 39.5242 -78.4244 127° Southeast 286 329 11,900 -1,140 Descending Washington Center
Fri 12:57:05 AM 39.4719 -78.3392 128° Southeast 286 329 10,800 -1,073 Descending Washington Center
Fri 12:58:07 AM 39.4197 -78.2567 129° Southeast 286 329 9,700 -1,082 Descending Washington Center
Fri 12:59:07 AM 39.3692 -78.1742 128° Southeast 291 335 8,600 -1,160 Descending Washington Center
Fri 01:00:06 AM 39.3211 -78.0919 127° Southeast 291 335 7,400 -1,169 Descending Washington Center
Fri 01:01:05 AM 39.2725 -78.0125 128° Southeast 291 335 6,300 -700 Descending Washington Center
Fri 01:02:06 AM 39.2303 -77.9361 125° Southeast 280 322 6,000 -148 Descending Washington Center
Fri 01:03:07 AM 39.1900 -77.8625 125° Southeast 268 308 6,000  Level Washington Center
Fri 01:04:04 AM 39.1478 -77.7889 126° Southeast 258 297 6,000 -781 Level Washington Center
Fri 01:06:19 AM 39.0333 -77.6667 140° Southeast 233 268 3,500 -923 Descending Potomac TRACON
Fri 01:07:19 AM 38.9833 -77.6333 153° Southeast 221 254 3,000 -300 Descending Potomac TRACON
Fri 01:08:19 AM 38.9500 -77.5833 131° Southeast 217 250 2,900 -550 Descending Potomac TRACON
Fri 01:09:19 AM 38.9333 -77.5167 108° East 220 253 1,900 -1,000 Descending Potomac TRACON
Fri 01:10:19 AM 38.9333 -77.4667 90° East 173 199 900 -1,000 Descending Potomac TRACON
Fri 01:12:00 AM 38.9333 -77.4500 90° East  Level FlightAware Approximate
Fri 01:19:00 AM 38.9474 -77.4599 90° East  Level Estimated
Fri 01:20:00 AM 38.9474 -77.4599 90° East  Level Estimated
Fri 01:21:00 AM 38.9474 -77.4599 90° East  Level Estimated
Fri 01:22:00 AM 38.9474 -77.4599 90° East  Level Estimated
Fri 01:23:00 AM 38.9474 -77.4599 90° East  Level Estimated
Fri 01:24:00 AM 38.9474 -77.4599 90° East  Level Estimated

Login

Don't have an account? Register now (free) for customized features, flight alerts, and more!